Time;durP1;ratioP1;P1;durP2;ratioP2;P2;SDS_P1;SDS_P2;PMS_P1;PMS_P2;Temp;Humidity;BMP_temperature;BMP_pressure;BME280_temperature;BME280_humidity;BME280_pressure;Samples;Min_cycle;Max_cycle;Signal;HPM_P1;HPM_P2
2023/04/05 00:00:42;;;;;;;11.85;8.00;;;0.40;99.90;;;;;;5050789;28;20496;-93
2023/04/05 00:03:11;;;;;;;11.38;8.10;;;0.30;99.90;;;;;;5050618;28;20400;-95
2023/04/05 00:05:38;;;;;;;11.07;7.27;;;0.40;99.90;;;;;;5051725;28;21017;-93
2023/04/05 00:08:12;;;;;;;11.43;7.45;;;1.00;99.90;;;;;;5049470;28;20427;-94
2023/04/05 00:10:38;;;;;;;11.23;7.22;;;0.30;99.90;;;;;;5051775;28;20457;-92
2023/04/05 00:13:04;;;;;;;10.40;6.90;;;0.60;99.90;;;;;;5049188;28;20406;-92
2023/04/05 00:15:32;;;;;;;10.20;7.47;;;0.30;99.90;;;;;;5051818;28;20404;-93
2023/04/05 00:17:59;;;;;;;11.23;7.47;;;0.30;99.90;;;;;;5050225;28;20495;-92
2023/04/05 00:20:24;;;;;;;9.52;6.82;;;0.30;99.90;;;;;;5049867;28;20415;-93
2023/04/05 00:22:50;;;;;;;11.35;7.13;;;0.20;99.90;;;;;;5051621;28;20422;-93
2023/04/05 00:25:17;;;;;;;11.93;6.83;;;0.20;99.90;;;;;;5049396;28;20555;-93
2023/04/05 00:27:43;;;;;;;11.27;7.28;;;0.40;99.90;;;;;;5051612;28;21002;-92
2023/04/05 00:30:09;;;;;;;9.93;6.60;;;0.20;99.90;;;;;;5048513;28;20404;-93
2023/04/05 00:32:35;;;;;;;10.50;7.05;;;0.10;99.90;;;;;;5051637;28;20391;-94
2023/04/05 00:35:01;;;;;;;10.87;6.63;;;0.30;99.90;;;;;;5049700;28;20391;-93
2023/04/05 00:37:26;;;;;;;12.50;8.57;;;0.10;99.90;;;;;;5051173;28;20407;-92
2023/04/05 00:39:52;;;;;;;11.27;7.77;;;0.10;99.90;;;;;;5050818;28;20407;-92
2023/04/05 00:42:18;;;;;;;11.67;7.87;;;0.10;99.90;;;;;;5049271;28;20404;-93
2023/04/05 00:44:44;;;;;;;12.85;8.60;;;0.10;99.90;;;;;;5051289;28;20418;-93
2023/04/05 00:47:10;;;;;;;13.10;8.82;;;-0.10;99.90;;;;;;5048642;28;20784;-93
2023/04/05 00:49:37;;;;;;;11.40;8.80;;;-0.10;99.90;;;;;;5051435;28;20396;-93
2023/04/05 00:52:03;;;;;;;11.50;7.93;;;-0.10;99.90;;;;;;5049055;28;20444;-94
2023/04/05 00:54:29;;;;;;;11.05;8.10;;;-0.20;99.90;;;;;;5050997;28;20423;-94
2023/04/05 00:56:56;;;;;;;11.32;7.32;;;0.00;99.90;;;;;;5049484;28;20403;-93
2023/04/05 00:59:22;;;;;;;11.48;8.20;;;-0.40;99.90;;;;;;5051772;28;20396;-93
2023/04/05 01:01:55;;;;;;;11.25;8.77;;;-0.20;99.90;;;;;;5050768;28;20396;-93
2023/04/05 01:04:25;;;;;;;10.80;7.88;;;-0.30;99.90;;;;;;5048772;28;20415;-93
2023/04/05 01:07:05;;;;;;;10.20;7.75;;;-0.50;99.90;;;;;;5050613;28;20510;-93
2023/04/05 01:09:57;;;;;;;9.90;6.93;;;-0.50;99.90;;;;;;5048512;28;20912;-94
2023/04/05 01:12:30;;;;;;;11.73;7.18;;;-0.50;99.90;;;;;;5049958;28;20407;-94
2023/04/05 01:14:56;;;;;;;9.63;7.30;;;-0.40;99.90;;;;;;5050625;28;20597;-91
2023/04/05 01:17:26;;;;;;;12.83;8.43;;;-0.40;99.90;;;;;;5048480;28;20510;-93
2023/04/05 01:19:57;;;;;;;9.90;7.50;;;-0.40;99.90;;;;;;5050947;28;20949;-93
2023/04/05 01:22:55;;;;;;;11.50;8.52;;;-0.50;99.90;;;;;;5048081;28;20399;-93
2023/04/05 01:25:51;;;;;;;11.77;7.60;;;-0.50;99.90;;;;;;5033744;28;20416;-90
2023/04/05 01:28:39;;;;;;;9.35;6.80;;;-0.40;99.90;;;;;;5050247;28;20473;-92
2023/04/05 01:31:33;;;;;;;9.80;7.50;;;-0.40;99.90;;;;;;5049329;28;20502;-94
2023/04/05 01:34:28;;;;;;;9.48;7.10;;;-0.40;99.90;;;;;;5049766;28;20538;-93
2023/04/05 01:36:58;;;;;;;10.55;8.05;;;-0.40;99.90;;;;;;4980802;28;20909;-93
2023/04/05 01:39:25;;;;;;;13.52;10.05;;;-0.40;99.90;;;;;;5048651;28;20403;-92
2023/04/05 01:41:51;;;;;;;17.23;12.18;;;-0.40;99.90;;;;;;5050351;28;20395;-93
2023/04/05 01:44:16;;;;;;;10.87;8.40;;;-0.40;99.90;;;;;;5047624;28;20437;-92
2023/04/05 01:46:42;;;;;;;11.48;7.93;;;-0.60;99.90;;;;;;5050249;28;20510;-92
2023/04/05 01:49:08;;;;;;;10.93;8.23;;;-0.50;99.90;;;;;;5048815;28;20399;-95
2023/04/05 01:51:33;;;;;;;12.90;8.40;;;-0.70;99.90;;;;;;5048770;28;20765;-92
2023/04/05 01:53:59;;;;;;;12.70;8.85;;;-0.70;99.90;;;;;;5049825;28;20461;-94
2023/04/05 01:56:26;;;;;;;12.00;8.23;;;-0.70;99.90;;;;;;5047465;28;20477;-93
2023/04/05 01:58:51;;;;;;;12.32;8.65;;;-0.70;99.90;;;;;;5049915;28;20412;-93
2023/04/05 02:01:17;;;;;;;11.60;8.07;;;-0.70;99.90;;;;;;5047286;28;20995;-92
2023/04/05 02:03:43;;;;;;;11.63;7.90;;;-0.70;99.90;;;;;;5050392;28;20439;-93
2023/04/05 02:06:08;;;;;;;11.67;8.70;;;-0.80;99.90;;;;;;5047835;28;20453;-93
2023/04/05 02:08:34;;;;;;;10.15;7.70;;;-0.80;99.90;;;;;;5048953;28;20761;-93
2023/04/05 02:11:00;;;;;;;10.50;7.75;;;-0.80;99.90;;;;;;5048922;28;20403;-92
2023/04/05 02:13:25;;;;;;;10.75;7.45;;;-0.70;99.90;;;;;;5048001;28;20477;-94
2023/04/05 02:15:51;;;;;;;11.00;7.47;;;-0.70;99.90;;;;;;5049540;28;20396;-93
2023/04/05 02:18:29;;;;;;;9.48;7.18;;;-0.80;99.90;;;;;;5047104;28;21206;-93
2023/04/05 02:21:01;;;;;;;8.98;6.88;;;-0.70;99.90;;;;;;5049859;28;20741;-93
2023/04/05 02:23:29;;;;;;;9.93;7.88;;;-0.70;99.90;;;;;;5047395;28;20395;-93
2023/04/05 02:25:55;;;;;;;12.45;7.38;;;-0.70;99.90;;;;;;5049273;28;20408;-94
2023/04/05 02:28:21;;;;;;;10.00;7.37;;;-0.70;99.90;;;;;;5048697;28;20431;-96
2023/04/05 02:30:46;;;;;;;12.03;7.47;;;-0.80;99.90;;;;;;5047438;28;20407;-94
2023/04/05 02:33:12;;;;;;;9.80;7.03;;;-0.70;99.90;;;;;;5049482;28;20396;-94
2023/04/05 02:35:38;;;;;;;9.63;7.33;;;-0.70;99.90;;;;;;5047056;28;20408;-92
2023/04/05 02:38:04;;;;;;;10.20;7.45;;;-0.80;99.90;;;;;;5049051;28;20395;-93
2023/04/05 02:40:30;;;;;;;11.00;7.37;;;-0.80;99.90;;;;;;5046561;28;20946;-95
2023/04/05 02:42:56;;;;;;;9.63;6.63;;;-0.80;99.90;;;;;;5048756;28;20757;-94
2023/04/05 02:45:22;;;;;;;9.50;7.07;;;-1.00;99.90;;;;;;5047679;28;20865;-93
2023/04/05 02:47:48;;;;;;;11.32;7.65;;;-0.80;99.90;;;;;;5047820;28;20427;-93
2023/04/05 02:50:13;;;;;;;8.88;6.43;;;-1.00;99.90;;;;;;5048804;28;20487;-95
2023/04/05 02:52:39;;;;;;;10.63;7.10;;;-1.00;99.90;;;;;;5047146;28;20411;-94
2023/04/05 02:55:05;;;;;;;7.80;5.95;;;-0.90;99.90;;;;;;5048831;28;20403;-93
2023/04/05 02:57:31;;;;;;;8.90;7.03;;;-1.00;99.90;;;;;;5046214;28;20487;-93
2023/04/05 02:59:57;;;;;;;8.00;6.20;;;-1.10;99.90;;;;;;5049111;28;20447;-95
2023/04/05 03:02:22;;;;;;;8.70;6.40;;;-1.10;99.90;;;;;;5046616;28;20449;-92
2023/04/05 03:04:52;;;;;;;8.40;6.20;;;-0.90;99.90;;;;;;5048508;28;20416;-94
2023/04/05 03:07:17;;;;;;;8.40;5.90;;;-1.00;99.90;;;;;;5048217;28;20489;-93
2023/04/05 03:09:46;;;;;;;8.63;5.70;;;-0.80;99.90;;;;;;5047144;28;20403;-93
2023/04/05 03:12:12;;;;;;;7.30;5.13;;;-1.20;99.90;;;;;;5048620;28;20400;-92
2023/04/05 03:14:38;;;;;;;7.87;5.73;;;-1.10;99.90;;;;;;5046210;28;20997;-95
2023/04/05 03:17:05;;;;;;;8.07;6.03;;;-1.20;99.90;;;;;;5048499;28;20415;-94
2023/04/05 03:19:31;;;;;;;9.77;6.27;;;-1.10;99.90;;;;;;5046131;28;20915;-92
2023/04/05 03:21:57;;;;;;;7.10;5.55;;;-1.10;99.90;;;;;;5049354;28;20483;-94
2023/04/05 03:24:23;;;;;;;9.20;7.00;;;-1.10;99.90;;;;;;5047364;28;20408;-93
2023/04/05 03:26:48;;;;;;;9.75;6.80;;;-1.20;99.90;;;;;;5047376;28;20451;-92
2023/04/05 03:29:15;;;;;;;6.63;5.53;;;-1.10;99.90;;;;;;5048833;28;20446;-94
2023/04/05 03:31:41;;;;;;;9.05;6.32;;;-1.10;99.90;;;;;;5045706;28;20396;-93
2023/04/05 03:34:07;;;;;;;8.17;5.97;;;-1.20;99.90;;;;;;5048579;28;20422;-93
2023/04/05 03:36:41;;;;;;;8.57;6.00;;;-1.20;99.90;;;;;;5046151;28;20395;-94
2023/04/05 03:39:11;;;;;;;9.20;5.72;;;-1.20;99.90;;;;;;5048994;28;20408;-94
2023/04/05 03:41:38;;;;;;;9.00;6.95;;;-1.20;99.90;;;;;;5046896;28;20403;-94
2023/04/05 03:44:04;;;;;;;8.90;7.00;;;-1.20;99.90;;;;;;5047057;28;20422;-92
2023/04/05 03:46:30;;;;;;;8.98;6.30;;;-1.10;99.90;;;;;;5048180;28;20396;-94
2023/04/05 03:48:57;;;;;;;9.02;6.88;;;-1.30;99.90;;;;;;5045789;28;20431;-94
2023/04/05 03:51:23;;;;;;;8.80;6.87;;;-1.30;99.90;;;;;;5048974;28;20396;-92
2023/04/05 03:53:50;;;;;;;11.75;7.32;;;-1.40;99.90;;;;;;5046218;28;20408;-93
2023/04/05 03:56:15;;;;;;;7.93;6.63;;;-1.30;99.90;;;;;;5052279;28;20404;-93
2023/04/05 03:58:41;;;;;;;8.30;6.60;;;-1.30;99.90;;;;;;5049615;28;20422;-93
2023/04/05 04:01:07;;;;;;;9.30;6.50;;;-1.50;99.90;;;;;;5051715;28;20411;-93
2023/04/05 04:03:36;;;;;;;10.23;7.28;;;-1.50;99.90;;;;;;5050958;28;20403;-92
2023/04/05 04:06:05;;;;;;;11.10;7.50;;;-1.50;99.90;;;;;;5050322;28;20454;-92
2023/04/05 04:08:32;;;;;;;8.85;7.10;;;-1.60;99.90;;;;;;5051812;28;20434;-91
2023/04/05 04:10:58;;;;;;;9.70;6.55;;;-1.50;99.90;;;;;;5049625;28;20400;-91
2023/04/05 04:13:23;;;;;;;9.00;7.10;;;-1.60;99.90;;;;;;5051669;28;20426;-92
2023/04/05 04:15:49;;;;;;;8.53;6.63;;;-1.60;99.90;;;;;;5049771;28;20404;-93
2023/04/05 04:18:15;;;;;;;9.43;6.30;;;-1.50;99.90;;;;;;5052092;28;20478;-93
2023/04/05 04:20:41;;;;;;;10.70;6.80;;;-1.70;99.90;;;;;;5050079;28;20432;-93
2023/04/05 04:23:09;;;;;;;8.83;6.67;;;-1.70;99.90;;;;;;5050819;28;20411;-93
2023/04/05 04:25:38;;;;;;;10.13;6.57;;;-1.80;99.90;;;;;;5051367;28;20416;-93
2023/04/05 04:28:08;;;;;;;9.43;6.15;;;-1.90;99.90;;;;;;5048888;28;20435;-94
2023/04/05 04:30:34;;;;;;;9.90;7.32;;;-1.90;99.90;;;;;;5052897;28;20752;-94
2023/04/05 04:33:03;;;;;;;9.23;6.90;;;-1.90;99.90;;;;;;5048907;28;20396;-93
2023/04/05 04:35:33;;;;;;;9.13;6.85;;;-1.90;99.90;;;;;;5051346;28;20391;-92
2023/04/05 04:38:04;;;;;;;10.38;7.50;;;-1.70;99.90;;;;;;5050073;28;20489;-93
2023/04/05 04:40:37;;;;;;;10.00;6.97;;;-1.70;99.90;;;;;;5050798;28;20747;-94
2023/04/05 04:43:15;;;;;;;10.43;7.43;;;-1.80;99.90;;;;;;5051154;28;20426;-93
2023/04/05 04:45:42;;;;;;;10.60;7.72;;;-1.80;99.90;;;;;;5049313;28;20412;-94
2023/04/05 04:48:08;;;;;;;8.98;7.25;;;-1.60;99.90;;;;;;5051597;28;20450;-93
2023/04/05 04:50:34;;;;;;;10.32;6.72;;;-1.80;99.90;;;;;;5049023;28;20503;-93
2023/04/05 04:53:01;;;;;;;8.90;6.50;;;-1.80;99.90;;;;;;5051418;28;20403;-93
2023/04/05 04:55:28;;;;;;;8.77;6.90;;;-1.70;99.90;;;;;;5050227;28;20806;-91
2023/04/05 04:57:54;;;;;;;8.23;6.20;;;-1.90;99.90;;;;;;5050065;28;20811;-92
2023/04/05 05:00:21;;;;;;;11.38;7.85;;;-1.90;99.90;;;;;;5051171;28;20404;-92
2023/04/05 05:02:47;;;;;;;13.93;9.37;;;-2.00;99.90;;;;;;5048593;28;20519;-92
2023/04/05 05:05:13;;;;;;;11.30;8.20;;;-2.10;99.90;;;;;;5051240;28;20400;-92
2023/04/05 05:07:43;;;;;;;12.75;8.80;;;-2.00;99.90;;;;;;5048424;28;21130;-92
2023/04/05 05:10:10;;;;;;;10.48;7.28;;;-2.10;99.90;;;;;;5051558;28;20720;-92
2023/04/05 05:12:37;;;;;;;10.50;8.20;;;-2.00;99.90;;;;;;5049420;28;20400;-91
2023/04/05 05:15:03;;;;;;;11.52;8.68;;;-2.20;99.90;;;;;;5049949;28;20915;-93
2023/04/05 05:17:31;;;;;;;11.95;8.50;;;-2.20;99.90;;;;;;5050733;28;20442;-91
2023/04/05 05:19:59;;;;;;;12.43;9.48;;;-2.10;99.90;;;;;;5048622;28;20545;-94
2023/04/05 05:22:25;;;;;;;12.55;9.10;;;-2.00;99.90;;;;;;5052716;28;20422;-92
2023/04/05 05:24:51;;;;;;;12.18;8.77;;;-2.00;99.90;;;;;;5048646;28;20410;-93
2023/04/05 05:27:17;;;;;;;12.32;8.43;;;-1.90;99.90;;;;;;5050553;28;20515;-92
2023/04/05 05:29:43;;;;;;;12.45;8.90;;;-1.90;99.90;;;;;;5048495;28;20409;-92
2023/04/05 05:32:13;;;;;;;13.27;8.57;;;-1.80;99.90;;;;;;5050782;28;20907;-92
2023/04/05 05:34:39;;;;;;;11.35;8.15;;;-1.80;99.90;;;;;;5049954;28;20426;-94
2023/04/05 05:37:05;;;;;;;11.00;8.98;;;-1.70;99.90;;;;;;5048628;28;20414;-91
2023/04/05 05:39:31;;;;;;;12.52;8.75;;;-1.80;99.90;;;;;;5051068;28;20403;-92
2023/04/05 05:41:56;;;;;;;11.52;7.57;;;-1.60;99.90;;;;;;5047527;28;20449;-91
2023/04/05 05:44:22;;;;;;;12.27;8.18;;;-1.50;99.90;;;;;;5050072;28;20855;-93
2023/04/05 05:46:48;;;;;;;10.70;8.50;;;-1.40;99.90;;;;;;5047635;28;20404;-92
2023/04/05 05:49:13;;;;;;;13.43;9.20;;;-1.20;99.90;;;;;;5050104;28;20499;-93
2023/04/05 05:51:39;;;;;;;13.40;9.53;;;-1.10;99.90;;;;;;5048362;28;20412;-94
2023/04/05 05:54:05;;;;;;;12.30;9.60;;;-1.00;99.90;;;;;;5049473;28;20396;-94
2023/04/05 05:56:30;;;;;;;15.30;10.50;;;-0.90;99.90;;;;;;5049886;28;20439;-91
2023/04/05 05:58:58;;;;;;;14.25;10.57;;;-0.70;99.90;;;;;;5048079;28;20455;-93
2023/04/05 06:01:26;;;;;;;15.80;11.40;;;-0.60;99.90;;;;;;5049976;28;20506;-92
2023/04/05 06:03:53;;;;;;;16.15;11.55;;;-0.40;99.90;;;;;;5047317;28;20888;-92
2023/04/05 06:06:19;;;;;;;18.70;12.65;;;-0.30;99.90;;;;;;5049997;28;20457;-93
2023/04/05 06:08:46;;;;;;;18.52;13.43;;;-0.20;99.90;;;;;;5047598;28;20427;-92
2023/04/05 06:11:20;;;;;;;18.07;13.60;;;0.00;99.90;;;;;;5049772;28;20764;-92
2023/04/05 06:13:46;;;;;;;21.50;13.85;;;0.10;99.90;;;;;;5049147;28;20419;-94
2023/04/05 06:16:11;;;;;;;17.88;13.80;;;0.30;99.90;;;;;;5047928;28;20904;-92
2023/04/05 06:18:37;;;;;;;20.03;15.20;;;0.30;99.90;;;;;;5049947;28;20841;-92
2023/04/05 06:21:03;;;;;;;22.00;15.87;;;0.40;99.90;;;;;;5047635;28;20407;-93
2023/04/05 06:23:28;;;;;;;21.33;15.70;;;0.40;99.90;;;;;;5050043;28;20730;-92
2023/04/05 06:25:55;;;;;;;20.45;16.08;;;0.70;99.90;;;;;;5047916;28;20465;-93
2023/04/05 06:28:21;;;;;;;21.48;15.93;;;1.00;99.90;;;;;;5049609;28;20466;-92
2023/04/05 06:30:47;;;;;;;20.52;15.20;;;1.00;99.90;;;;;;5048445;28;20403;-92
2023/04/05 06:33:13;;;;;;;21.23;16.75;;;1.50;99.90;;;;;;5048887;28;20767;-92
2023/04/05 06:35:39;;;;;;;21.43;15.80;;;1.40;99.90;;;;;;5049441;28;20864;-93
2023/04/05 06:38:05;;;;;;;21.63;16.23;;;1.50;99.90;;;;;;5047964;28;20622;-92
2023/04/05 06:40:30;;;;;;;22.97;17.37;;;1.50;99.90;;;;;;5049591;28;20865;-93
2023/04/05 06:42:56;;;;;;;21.33;16.43;;;1.60;99.90;;;;;;5047654;28;20400;-93
2023/04/05 06:45:22;;;;;;;19.95;15.80;;;1.80;99.90;;;;;;5049996;28;20936;-92
2023/04/05 06:47:48;;;;;;;20.98;16.88;;;1.90;99.90;;;;;;5047541;28;20435;-92
2023/04/05 06:50:14;;;;;;;23.53;17.10;;;2.10;99.90;;;;;;5049409;28;20395;-92
2023/04/05 06:52:40;;;;;;;22.52;16.60;;;2.10;99.90;;;;;;5048913;28;20926;-92
2023/04/05 06:55:07;;;;;;;23.33;17.83;;;2.30;99.90;;;;;;5049048;28;20416;-93
2023/04/05 06:57:33;;;;;;;21.53;16.93;;;2.30;99.90;;;;;;5049242;28;20440;-93
2023/04/05 06:59:59;;;;;;;21.55;16.85;;;2.40;99.90;;;;;;5047875;28;20912;-91
2023/04/05 07:02:24;;;;;;;21.60;16.80;;;2.60;99.90;;;;;;5049658;28;20507;-92
2023/04/05 07:04:50;;;;;;;19.30;16.30;;;2.80;99.90;;;;;;5047360;28;20753;-92
2023/04/05 07:07:16;;;;;;;21.55;17.10;;;2.80;99.90;;;;;;5049390;28;20430;-93
2023/04/05 07:09:42;;;;;;;18.25;15.50;;;2.90;99.90;;;;;;5047871;28;20396;-91
2023/04/05 07:12:08;;;;;;;20.27;16.38;;;2.90;99.90;;;;;;5049035;28;20749;-91
2023/04/05 07:14:36;;;;;;;23.00;17.30;;;2.90;99.90;;;;;;5049418;28;20411;-91
2023/04/05 07:17:04;;;;;;;18.90;15.15;;;3.20;99.90;;;;;;5047503;28;20406;-91
2023/04/05 07:19:30;;;;;;;19.25;16.15;;;3.20;99.90;;;;;;5049329;28;20400;-91
2023/04/05 07:21:56;;;;;;;20.67;16.83;;;3.40;99.90;;;;;;5047335;28;20412;-91
2023/04/05 07:24:22;;;;;;;18.25;15.45;;;3.60;99.90;;;;;;5049228;28;20392;-92
2023/04/05 07:26:48;;;;;;;19.60;15.32;;;3.60;99.90;;;;;;5047657;28;20396;-91
2023/04/05 07:29:13;;;;;;;17.35;15.10;;;3.60;99.90;;;;;;5049757;28;20408;-93
2023/04/05 07:31:39;;;;;;;19.65;15.20;;;3.70;99.90;;;;;;5052708;28;20899;-92
2023/04/05 07:34:05;;;;;;;17.83;15.90;;;3.80;99.90;;;;;;5051776;28;20928;-91
2023/04/05 07:36:32;;;;;;;18.05;15.15;;;3.90;99.90;;;;;;5053020;28;20403;-91
2023/04/05 07:38:58;;;;;;;16.55;14.75;;;4.00;99.90;;;;;;5051168;28;20799;-92
2023/04/05 07:41:30;;;;;;;16.95;14.35;;;4.00;99.90;;;;;;5053060;28;20396;-92
2023/04/05 07:43:56;;;;;;;17.77;15.88;;;4.10;99.90;;;;;;5050818;28;20994;-91
2023/04/05 07:46:22;;;;;;;16.88;15.13;;;4.40;99.90;;;;;;5052816;28;20826;-91
2023/04/05 07:48:48;;;;;;;16.45;14.73;;;4.20;99.90;;;;;;5051278;28;20785;-92
2023/04/05 07:51:14;;;;;;;18.15;14.70;;;4.70;99.90;;;;;;5051730;28;20400;-92
2023/04/05 07:53:41;;;;;;;16.35;14.65;;;4.60;99.90;;;;;;5052962;28;20412;-92
2023/04/05 07:56:09;;;;;;;15.50;13.55;;;4.80;99.90;;;;;;5051207;28;20418;-91
2023/04/05 07:58:39;;;;;;;18.30;16.17;;;4.60;99.90;;;;;;5052570;28;20411;-92
2023/04/05 08:01:05;;;;;;;15.88;14.18;;;4.70;99.90;;;;;;5050568;28;20999;-93
2023/04/05 08:03:33;;;;;;;16.17;14.20;;;4.70;99.90;;;;;;5052278;28;20479;-92
2023/04/05 08:06:10;;;;;;;16.50;14.80;;;4.90;99.90;;;;;;5051464;28;20775;-93
2023/04/05 08:08:36;;;;;;;15.85;13.88;;;5.00;99.90;;;;;;5051325;28;20803;-92
2023/04/05 08:11:02;;;;;;;14.15;12.52;;;5.10;99.90;;;;;;5052112;28;20426;-92
2023/04/05 08:13:28;;;;;;;15.68;14.07;;;5.10;99.90;;;;;;5050258;28;20403;-91
2023/04/05 08:15:57;;;;;;;14.03;12.40;;;5.40;99.90;;;;;;5052486;28;20411;-92
2023/04/05 08:18:22;;;;;;;14.32;12.82;;;5.20;99.90;;;;;;5050102;28;20414;-94
2023/04/05 08:20:53;;;;;;;13.32;11.93;;;5.30;99.90;;;;;;5052642;28;20404;-91
2023/04/05 08:23:19;;;;;;;14.45;12.27;;;5.40;99.90;;;;;;5050182;28;20549;-90
2023/04/05 08:25:45;;;;;;;14.65;12.05;;;5.90;99.90;;;;;;5051969;28;20506;-92
2023/04/05 08:28:11;;;;;;;13.32;11.82;;;5.50;99.90;;;;;;5051828;28;20463;-91
2023/04/05 08:30:37;;;;;;;11.90;9.93;;;5.60;99.90;;;;;;5049944;28;20439;-92
2023/04/05 08:33:03;;;;;;;12.68;10.40;;;5.90;99.90;;;;;;5051844;28;20404;-92
2023/04/05 08:35:29;;;;;;;13.05;10.95;;;5.80;99.90;;;;;;5049520;28;20410;-91
2023/04/05 08:37:55;;;;;;;11.40;10.23;;;5.80;99.90;;;;;;5051925;28;20462;-92
2023/04/05 08:40:28;;;;;;;11.32;9.55;;;5.80;99.90;;;;;;5049625;28;20395;-91
2023/04/05 08:43:02;;;;;;;11.25;9.45;;;6.30;97.50;;;;;;5051079;28;20903;-91
2023/04/05 08:45:28;;;;;;;12.07;9.68;;;6.00;97.20;;;;;;5050952;28;20400;-92
2023/04/05 08:47:53;;;;;;;12.00;9.45;;;6.10;95.00;;;;;;5049781;28;20424;-92
2023/04/05 08:50:19;;;;;;;10.38;9.15;;;6.30;95.60;;;;;;5051233;28;20433;-92
2023/04/05 08:52:49;;;;;;;12.10;10.02;;;6.50;93.60;;;;;;5049636;28;20412;-91
2023/04/05 08:55:15;;;;;;;12.40;9.48;;;6.50;95.10;;;;;;5051341;28;20403;-93
2023/04/05 08:57:46;;;;;;;10.40;9.18;;;6.50;92.70;;;;;;5048993;28;20903;-90
2023/04/05 09:00:12;;;;;;;11.18;9.75;;;6.70;92.60;;;;;;5050860;28;20407;-92
2023/04/05 09:02:39;;;;;;;10.88;8.98;;;6.70;96.30;;;;;;5050586;28;20421;-92
2023/04/05 09:05:09;;;;;;;11.38;9.15;;;6.80;83.10;;;;;;5049300;28;20850;-91
2023/04/05 09:07:36;;;;;;;11.00;9.80;;;6.90;88.20;;;;;;5050902;28;21000;-92
2023/04/05 09:10:04;;;;;;;11.35;9.57;;;6.90;91.10;;;;;;5048959;28;20396;-92
2023/04/05 09:12:30;;;;;;;11.37;10.20;;;7.10;92.90;;;;;;5051081;28;20820;-93
2023/04/05 09:15:00;;;;;;;11.85;9.95;;;7.20;97.80;;;;;;5048741;28;20402;-93
2023/04/05 09:17:27;;;;;;;11.35;10.13;;;7.40;88.00;;;;;;5050457;28;20400;-95
2023/04/05 09:19:53;;;;;;;11.75;10.55;;;7.50;93.50;;;;;;5050272;28;20398;-95
2023/04/05 09:22:21;;;;;;;10.85;9.30;;;7.50;94.60;;;;;;5049864;28;20423;-92
2023/04/05 09:24:47;;;;;;;11.10;9.57;;;7.60;83.20;;;;;;5050835;28;20844;-93
2023/04/05 09:27:15;;;;;;;9.97;8.97;;;7.70;88.60;;;;;;5047959;28;20479;-91
2023/04/05 09:29:43;;;;;;;11.52;8.98;;;7.70;76.30;;;;;;5050840;28;20946;-96
2023/04/05 09:32:10;;;;;;;10.63;8.15;;;7.80;77.80;;;;;;5048423;28;20507;-92
2023/04/05 09:34:37;;;;;;;9.90;8.80;;;7.90;72.40;;;;;;5050571;28;20406;-94
2023/04/05 09:37:15;;;;;;;10.85;8.40;;;7.60;81.80;;;;;;5049485;28;20399;-91
2023/04/05 09:39:45;;;;;;;9.77;8.00;;;8.10;79.20;;;;;;5049743;28;20410;-93
2023/04/05 09:42:14;;;;;;;9.35;7.72;;;8.10;73.10;;;;;;5049331;28;20442;-92
2023/04/05 09:45:03;;;;;;;8.63;7.70;;;8.30;75.80;;;;;;5048118;28;20515;-95
2023/04/05 09:47:31;;;;;;;8.48;6.90;;;8.40;73.50;;;;;;5050478;28;20514;-93
2023/04/05 09:49:58;;;;;;;8.00;7.13;;;8.50;69.20;;;;;;5048053;28;20439;-94
2023/04/05 09:52:25;;;;;;;7.25;5.65;;;8.60;68.70;;;;;;5049294;28;20667;-94
2023/04/05 09:54:55;;;;;;;8.15;6.10;;;8.80;66.00;;;;;;5054235;28;20412;-93
2023/04/05 09:57:26;;;;;;;7.50;5.93;;;9.20;62.20;;;;;;5056649;28;20770;-92
2023/04/05 09:59:53;;;;;;;7.25;6.10;;;9.10;60.70;;;;;;5052578;28;20918;-92
2023/04/05 10:02:20;;;;;;;7.53;6.03;;;9.30;61.00;;;;;;5051632;28;20521;-93
2023/04/05 10:04:47;;;;;;;6.93;5.50;;;9.60;61.20;;;;;;5052797;28;20926;-93
2023/04/05 10:07:17;;;;;;;7.80;5.82;;;9.80;61.30;;;;;;5050509;28;20433;-93
2023/04/05 10:09:47;;;;;;;6.47;5.72;;;10.10;61.00;;;;;;5053365;28;20469;-92
2023/04/05 10:12:26;;;;;;;5.88;5.25;;;10.70;58.10;;;;;;5053962;28;20471;-94
2023/04/05 10:14:52;;;;;;;6.03;5.35;;;11.10;54.10;;;;;;5052999;28;20518;-92
2023/04/05 10:17:30;;;;;;;7.75;5.90;;;11.30;53.50;;;;;;5051679;28;20395;-93
2023/04/05 10:20:11;;;;;;;6.93;5.88;;;11.80;49.30;;;;;;5051507;28;20410;-92
2023/04/05 10:23:18;;;;;;;6.68;5.78;;;11.80;48.90;;;;;;5053232;28;20930;-92
2023/04/05 10:25:50;;;;;;;6.65;5.95;;;11.80;49.30;;;;;;5037826;28;20440;-93
2023/04/05 10:28:34;;;;;;;7.28;5.57;;;12.20;52.30;;;;;;5052561;28;20451;-95
2023/04/05 10:31:10;;;;;;;6.72;5.13;;;12.90;49.90;;;;;;5052825;28;20410;-92
2023/04/05 10:33:44;;;;;;;6.00;5.47;;;13.30;46.10;;;;;;5050610;28;20782;-93
2023/04/05 10:36:41;;;;;;;5.97;5.38;;;13.70;45.70;;;;;;5052576;28;20445;-95
2023/04/05 10:39:22;;;;;;;6.15;5.07;;;14.00;44.60;;;;;;5051371;28;20412;-94
2023/04/05 10:41:58;;;;;;;6.28;5.07;;;14.20;42.70;;;;;;5050966;28;20994;-93
2023/04/05 10:44:38;;;;;;;5.70;5.10;;;14.20;42.60;;;;;;5052819;28;20406;-96
2023/04/05 10:47:05;;;;;;;6.28;4.80;;;14.40;41.90;;;;;;5050623;28;20402;-96
2023/04/05 10:49:57;;;;;;;5.95;5.10;;;14.40;41.50;;;;;;5053114;28;20809;-91
2023/04/05 10:52:23;;;;;;;5.45;4.88;;;14.60;40.50;;;;;;5051360;28;20516;-92
2023/04/05 10:54:51;;;;;;;6.40;4.90;;;14.40;40.20;;;;;;5052052;28;20404;-94
2023/04/05 10:57:19;;;;;;;5.72;5.10;;;14.50;41.30;;;;;;5051928;28;20463;-95
2023/04/05 10:59:47;;;;;;;5.70;4.63;;;14.60;39.50;;;;;;5051130;28;20793;-95
2023/04/05 11:02:21;;;;;;;6.60;5.10;;;14.70;40.70;;;;;;5054039;28;20405;-94
2023/04/05 11:04:58;;;;;;;5.70;5.07;;;14.70;39.80;;;;;;5054113;28;20694;-94
2023/04/05 11:07:24;;;;;;;5.82;5.03;;;15.00;39.80;;;;;;5056544;28;20453;-92
2023/04/05 11:10:04;;;;;;;5.13;4.63;;;15.20;40.60;;;;;;5057527;28;20427;-95
2023/04/05 11:12:45;;;;;;;5.18;4.68;;;15.40;39.40;;;;;;5056335;28;20431;-93
2023/04/05 11:15:29;;;;;;;6.03;4.97;;;15.60;39.20;;;;;;5056708;28;20909;-96
2023/04/05 11:18:06;;;;;;;6.25;4.65;;;16.10;39.40;;;;;;5059872;28;20417;-93
2023/04/05 11:20:56;;;;;;;4.70;4.20;;;16.00;38.20;;;;;;5057532;28;20401;-94
2023/04/05 11:23:23;;;;;;;4.93;4.20;;;16.00;37.10;;;;;;5055417;28;20500;-93
2023/04/05 11:25:54;;;;;;;4.87;4.10;;;15.90;36.90;;;;;;5056392;28;20447;-95
2023/04/05 11:28:40;;;;;;;4.97;4.30;;;15.60;33.30;;;;;;5056405;28;20535;-94
2023/04/05 11:31:13;;;;;;;5.43;4.30;;;15.40;36.80;;;;;;5055197;28;20456;-93
2023/04/05 11:33:54;;;;;;;5.32;4.82;;;15.40;37.80;;;;;;5062301;28;20405;-96
2023/04/05 11:36:33;;;;;;;5.18;4.50;;;16.00;38.90;;;;;;5054188;28;20394;-91
2023/04/05 11:39:20;;;;;;;4.93;4.22;;;16.40;39.10;;;;;;5058358;28;20429;-94
2023/04/05 11:41:52;;;;;;;4.32;3.88;;;16.60;35.90;;;;;;5053540;28;20413;-95
2023/04/05 11:44:23;;;;;;;5.40;4.18;;;16.70;33.70;;;;;;5056060;28;20475;-96
2023/04/05 11:46:50;;;;;;;4.82;4.28;;;16.70;32.40;;;;;;5055498;28;20417;-94
2023/04/05 11:50:04;;;;;;;5.70;4.18;;;16.80;35.10;;;;;;5058441;28;20503;-96
2023/04/05 11:52:30;;;;;;;4.80;4.30;;;17.00;36.00;;;;;;5057696;28;20794;-94
2023/04/05 11:55:01;;;;;;;4.60;3.88;;;17.20;34.90;;;;;;5055168;28;20414;-96
2023/04/05 11:57:29;;;;;;;5.35;3.92;;;17.60;35.60;;;;;;5062858;28;20765;-95
2023/04/05 12:00:01;;;;;;;4.10;3.70;;;17.70;32.20;;;;;;5055477;28;20402;-94
2023/04/05 12:02:27;;;;;;;5.27;3.93;;;17.80;33.80;;;;;;5057260;28;20410;-95
2023/04/05 12:04:55;;;;;;;5.50;4.07;;;18.10;32.90;;;;;;5053307;28;20497;-93
2023/04/05 12:07:26;;;;;;;5.15;3.92;;;18.10;32.60;;;;;;5058212;28;20467;-93
2023/04/05 12:10:12;;;;;;;5.25;3.63;;;18.20;32.10;;;;;;5073617;28;20410;-93
2023/04/05 12:12:39;;;;;;;4.13;3.72;;;18.00;30.90;;;;;;5065617;28;20926;-95
2023/04/05 12:15:08;;;;;;;5.05;3.88;;;17.90;31.30;;;;;;5053949;28;20680;-94
2023/04/05 12:17:52;;;;;;;4.53;3.60;;;18.00;32.50;;;;;;5052935;28;20448;-94
2023/04/05 12:20:22;;;;;;;4.85;3.97;;;18.10;33.50;;;;;;5055500;28;20411;-93
2023/04/05 12:23:16;;;;;;;6.15;3.72;;;18.30;33.00;;;;;;5057720;28;20397;-96
2023/04/05 12:25:46;;;;;;;5.60;3.88;;;18.20;30.90;;;;;;5061234;28;20413;-93
2023/04/05 12:28:11;;;;;;;4.05;3.53;;;18.30;32.40;;;;;;5057741;28;20433;-93
2023/04/05 12:30:59;;;;;;;5.10;3.40;;;18.40;31.60;;;;;;5055814;28;20404;-92
2023/04/05 12:33:30;;;;;;;4.30;3.00;;;18.50;30.10;;;;;;5054424;28;20758;-94
2023/04/05 12:35:57;;;;;;;3.60;3.10;;;18.80;33.40;;;;;;5052537;28;20496;-94
2023/04/05 12:38:26;;;;;;;3.92;3.20;;;19.10;30.10;;;;;;5054732;28;20391;-95
2023/04/05 12:40:53;;;;;;;4.80;3.72;;;19.50;31.10;;;;;;5052131;28;20409;-91
2023/04/05 12:43:44;;;;;;;4.13;3.70;;;19.60;31.00;;;;;;5055229;28;20402;-95
2023/04/05 12:46:16;;;;;;;5.20;4.10;;;20.10;31.20;;;;;;5053267;28;20926;-95
2023/04/05 12:48:42;;;;;;;5.18;4.05;;;20.00;30.20;;;;;;5054807;28;20432;-95
2023/04/05 12:51:17;;;;;;;6.40;4.37;;;20.10;29.40;;;;;;5054518;28;20402;-93
2023/04/05 12:53:50;;;;;;;4.18;3.83;;;19.80;29.50;;;;;;5054588;28;20413;-95